createdAt,value
2018-10-11T00:00:08.426Z,99.99
2018-10-11T00:01:08.402Z,99.99
2018-10-11T00:02:08.375Z,99.99
2018-10-11T00:03:08.351Z,99.99
2018-10-11T00:04:08.326Z,99.99
2018-10-11T00:05:08.300Z,99.99
2018-10-11T00:06:08.275Z,99.99
2018-10-11T00:07:08.250Z,99.99
2018-10-11T00:08:08.223Z,99.99
2018-10-11T00:09:08.202Z,99.99
2018-10-11T00:10:08.172Z,99.99
2018-10-11T00:11:08.147Z,99.99
2018-10-11T00:12:08.123Z,99.99
2018-10-11T00:13:08.098Z,99.99
2018-10-11T00:14:08.072Z,99.99
2018-10-11T00:15:08.048Z,99.99
2018-10-11T00:16:08.022Z,99.99
2018-10-11T00:17:07.999Z,99.99
2018-10-11T00:18:07.971Z,99.99
2018-10-11T00:19:07.947Z,99.99
2018-10-11T00:20:07.927Z,99.99
2018-10-11T00:21:07.900Z,99.99
2018-10-11T00:22:07.872Z,99.99
2018-10-11T00:23:07.846Z,99.99
2018-10-11T00:24:07.822Z,99.99
2018-10-11T00:25:07.799Z,99.99
2018-10-11T00:26:07.771Z,99.99
2018-10-11T00:27:07.745Z,99.99
2018-10-11T00:28:07.719Z,99.99
2018-10-11T00:29:07.694Z,99.99
2018-10-11T00:30:07.667Z,99.99
2018-10-11T00:31:07.648Z,99.99
2018-10-11T00:32:07.618Z,99.99
2018-10-11T00:33:07.592Z,99.99
2018-10-11T00:34:07.567Z,99.99
2018-10-11T00:35:07.542Z,99.99
2018-10-11T00:36:07.515Z,99.99
2018-10-11T00:37:07.492Z,99.99
2018-10-11T00:38:07.468Z,99.99
2018-10-11T00:39:07.441Z,99.99
2018-10-11T00:40:07.416Z,99.99
2018-10-11T00:41:07.389Z,99.99
2018-10-11T00:42:07.364Z,99.99
2018-10-11T00:43:07.340Z,99.99
2018-10-11T00:44:07.315Z,99.99
2018-10-11T00:45:07.288Z,99.99
2018-10-11T00:46:07.264Z,99.99
2018-10-11T00:47:07.242Z,99.99
2018-10-11T00:48:07.213Z,99.99
2018-10-11T00:49:07.187Z,99.99
2018-10-11T00:50:07.162Z,99.99
2018-10-11T00:51:07.136Z,99.99
2018-10-11T00:52:07.111Z,99.99
2018-10-11T00:53:07.107Z,99.99
2018-10-11T00:54:07.060Z,99.99
2018-10-11T00:55:07.037Z,99.99
2018-10-11T00:56:07.010Z,99.99
2018-10-11T00:57:06.985Z,99.99
2018-10-11T00:58:06.958Z,99.99
2018-10-11T00:59:06.933Z,99.99
2018-10-11T01:00:06.908Z,99.99
2018-10-11T01:01:06.882Z,99.99
2018-10-11T01:02:06.857Z,99.99
2018-10-11T01:03:06.831Z,99.99
2018-10-11T01:04:06.806Z,99.99
2018-10-11T01:05:06.781Z,99.99
2018-10-11T01:06:06.755Z,99.99
2018-10-11T01:07:06.728Z,99.99
2018-10-11T01:08:06.703Z,99.99
2018-10-11T01:09:06.715Z,99.99
2018-10-11T01:10:06.665Z,99.99
2018-10-11T01:11:06.627Z,99.99
2018-10-11T01:12:06.601Z,99.99
2018-10-11T01:13:06.576Z,99.99
2018-10-11T01:14:06.550Z,99.99
2018-10-11T01:15:06.523Z,99.99
2018-10-11T01:16:06.499Z,99.99
2018-10-11T01:17:06.482Z,99.99
2018-10-11T01:18:06.445Z,99.99
2018-10-11T01:19:06.422Z,99.99
2018-10-11T01:20:06.396Z,99.99
2018-10-11T01:21:06.374Z,99.99
2018-10-11T01:22:06.344Z,99.99
2018-10-11T01:23:06.319Z,99.99
2018-10-11T01:24:06.294Z,99.99
2018-10-11T01:25:06.268Z,99.99
2018-10-11T01:26:06.241Z,99.99
2018-10-11T01:27:06.216Z,99.99
2018-10-11T01:28:06.190Z,99.99
2018-10-11T01:29:06.164Z,99.99
2018-10-11T01:30:06.185Z,99.99
2018-10-11T01:31:06.114Z,99.99
2018-10-11T01:32:06.091Z,99.99
2018-10-11T01:33:06.061Z,99.99
2018-10-11T01:34:06.033Z,99.99
2018-10-11T01:35:06.011Z,99.99
2018-10-11T01:36:05.982Z,99.99
2018-10-11T01:37:05.957Z,99.99
2018-10-11T01:38:05.934Z,99.99
2018-10-11T01:39:05.905Z,99.99
2018-10-11T01:40:05.881Z,99.99
2018-10-11T01:41:05.853Z,99.99
2018-10-11T01:42:05.831Z,99.99
2018-10-11T01:43:05.802Z,99.99
2018-10-11T01:44:05.776Z,99.99
2018-10-11T01:45:05.754Z,99.99
2018-10-11T01:46:05.723Z,99.99
2018-10-11T01:47:05.698Z,99.99
2018-10-11T01:48:05.673Z,99.99
2018-10-11T01:49:05.645Z,99.99
2018-10-11T01:50:05.619Z,99.99
2018-10-11T01:51:05.594Z,99.99
2018-10-11T01:52:05.569Z,99.99
2018-10-11T01:53:05.543Z,99.99
2018-10-11T01:54:05.516Z,99.99
2018-10-11T01:55:05.490Z,99.99
2018-10-11T01:56:05.465Z,99.99
2018-10-11T01:57:05.441Z,99.99
2018-10-11T01:58:05.410Z,99.99
2018-10-11T01:59:05.385Z,99.99
2018-10-11T02:00:05.360Z,99.99
2018-10-11T02:01:05.334Z,99.99
2018-10-11T02:02:05.307Z,99.99
2018-10-11T02:03:05.281Z,99.99
2018-10-11T02:04:05.256Z,99.99
2018-10-11T02:05:05.233Z,99.99
2018-10-11T02:06:05.203Z,99.99
2018-10-11T02:07:05.179Z,99.99
2018-10-11T02:08:05.151Z,99.99
2018-10-11T02:09:05.126Z,99.99
2018-10-11T02:10:05.100Z,99.99
2018-10-11T02:11:05.072Z,99.99
2018-10-11T02:12:05.054Z,99.99
2018-10-11T02:13:05.022Z,99.99
2018-10-11T02:14:04.997Z,99.99
2018-10-11T02:15:04.969Z,99.99
2018-10-11T02:16:04.942Z,99.99
2018-10-11T02:17:04.918Z,99.99
2018-10-11T02:18:04.890Z,99.99
2018-10-11T02:19:04.866Z,99.99
2018-10-11T02:20:04.838Z,99.99
2018-10-11T02:21:04.813Z,99.99
2018-10-11T02:22:04.786Z,99.99
2018-10-11T02:23:04.761Z,99.99
2018-10-11T02:24:04.734Z,99.99
2018-10-11T02:25:04.708Z,99.99
2018-10-11T02:26:04.684Z,99.99
2018-10-11T02:27:04.657Z,99.99
2018-10-11T02:28:04.630Z,99.99
2018-10-11T02:29:04.607Z,99.99
2018-10-11T02:30:04.580Z,99.99
2018-10-11T02:31:04.556Z,99.99
2018-10-11T02:32:04.619Z,99.99
2018-10-11T02:33:04.501Z,99.99
2018-10-11T02:34:04.476Z,99.99
2018-10-11T02:35:04.448Z,99.99
2018-10-11T02:36:04.426Z,99.99
2018-10-11T02:37:04.398Z,99.99
2018-10-11T02:38:04.370Z,99.99
2018-10-11T02:39:04.345Z,99.99
2018-10-11T02:40:04.319Z,99.99
2018-10-11T02:41:04.293Z,99.99
2018-10-11T02:42:04.266Z,99.99
2018-10-11T02:43:04.239Z,99.99
2018-10-11T02:44:04.218Z,99.99
2018-10-11T02:45:04.188Z,99.99
2018-10-11T02:46:04.164Z,99.99
2018-10-11T02:47:04.137Z,99.99
2018-10-11T02:48:04.109Z,99.99
2018-10-11T02:49:04.085Z,99.99
2018-10-11T02:50:04.057Z,99.99
2018-10-11T02:51:04.033Z,99.99
2018-10-11T02:52:04.004Z,99.99
2018-10-11T02:53:03.978Z,99.99
2018-10-11T02:54:03.956Z,99.99
2018-10-11T02:55:03.926Z,99.99
2018-10-11T02:56:03.898Z,99.99
2018-10-11T02:57:03.875Z,99.99
2018-10-11T02:58:03.845Z,99.99
2018-10-11T02:59:03.819Z,99.99
2018-10-11T03:00:03.795Z,99.99
2018-10-11T03:01:03.767Z,99.99
2018-10-11T03:02:03.741Z,99.99
2018-10-11T03:03:03.719Z,99.99
2018-10-11T03:04:03.689Z,99.99
2018-10-11T03:05:03.661Z,99.99
2018-10-11T03:06:03.636Z,99.99
2018-10-11T03:07:03.610Z,99.99
2018-10-11T03:08:03.584Z,99.99
2018-10-11T03:09:03.557Z,99.99
2018-10-11T03:10:03.530Z,99.99
2018-10-11T03:11:03.506Z,99.99
2018-10-11T03:12:03.477Z,99.99
2018-10-11T03:13:03.451Z,99.99
2018-10-11T03:14:03.425Z,99.99
2018-10-11T03:15:03.399Z,99.99
2018-10-11T03:16:03.372Z,99.99
2018-10-11T03:17:03.347Z,99.99
2018-10-11T03:18:03.318Z,99.99
2018-10-11T03:19:03.293Z,99.99
2018-10-11T03:20:03.266Z,99.99
2018-10-11T03:21:03.240Z,99.99
2018-10-11T03:22:03.212Z,99.99
2018-10-11T03:23:03.187Z,99.99
2018-10-11T03:24:03.160Z,99.99
2018-10-11T03:25:03.135Z,99.99
2018-10-11T03:26:03.107Z,99.99
2018-10-11T03:27:03.082Z,99.99
2018-10-11T03:28:03.054Z,99.99
2018-10-11T03:29:03.028Z,99.99
2018-10-11T03:30:03.002Z,99.99
2018-10-11T03:31:02.975Z,99.99
2018-10-11T03:32:02.948Z,99.99
2018-10-11T03:33:02.921Z,99.99
2018-10-11T03:34:02.898Z,99.99
2018-10-11T03:35:02.869Z,99.99
2018-10-11T03:36:02.841Z,99.99
2018-10-11T03:37:02.816Z,99.99
2018-10-11T03:38:02.788Z,99.99
2018-10-11T03:39:02.766Z,99.99
2018-10-11T03:40:02.736Z,99.99
2018-10-11T03:41:02.708Z,99.99
2018-10-11T03:42:02.682Z,99.99
2018-10-11T03:43:02.656Z,99.99
2018-10-11T03:44:02.629Z,99.99
2018-10-11T03:45:02.606Z,99.99
2018-10-11T03:46:02.575Z,99.99
2018-10-11T03:47:02.550Z,99.99
2018-10-11T03:48:02.523Z,99.99
2018-10-11T03:49:02.497Z,99.99
2018-10-11T03:50:02.468Z,99.99
2018-10-11T03:51:02.444Z,99.99
2018-10-11T03:52:02.417Z,99.99
2018-10-11T03:53:02.390Z,99.99
2018-10-11T03:54:02.365Z,99.99
2018-10-11T03:55:02.337Z,99.99
2018-10-11T03:56:02.309Z,99.99
2018-10-11T03:57:02.280Z,99.99
2018-10-11T03:58:02.257Z,99.99
2018-10-11T03:59:02.233Z,99.99
2018-10-11T04:00:02.201Z,99.99
2018-10-11T04:01:02.175Z,99.99
2018-10-11T04:02:02.147Z,99.99
2018-10-11T04:03:02.120Z,99.99
2018-10-11T04:04:02.097Z,99.99
2018-10-11T04:05:02.068Z,99.99
2018-10-11T04:06:02.040Z,99.99
2018-10-11T04:07:02.013Z,99.99
2018-10-11T04:08:01.987Z,99.99
2018-10-11T04:09:01.960Z,99.99
2018-10-11T04:10:01.934Z,99.99
2018-10-11T04:11:01.905Z,99.99
2018-10-11T04:12:01.882Z,99.99
2018-10-11T04:13:01.861Z,99.99
2018-10-11T04:14:01.826Z,99.99
2018-10-11T04:15:01.797Z,99.99
2018-10-11T04:16:01.775Z,99.99
2018-10-11T04:17:01.744Z,99.99
2018-10-11T04:18:01.717Z,99.99
2018-10-11T04:19:01.689Z,99.99
2018-10-11T04:20:01.663Z,99.99
2018-10-11T04:21:01.635Z,99.99
2018-10-11T04:22:01.607Z,99.99
2018-10-11T04:23:01.581Z,99.99
2018-10-11T04:24:01.563Z,99.99
2018-10-11T04:25:03.937Z,99.99
2018-10-11T04:26:01.500Z,99.99
2018-10-11T04:27:01.473Z,99.99
2018-10-11T04:28:01.445Z,99.99
2018-10-11T04:29:01.419Z,99.99
2018-10-11T04:30:01.426Z,99.99
2018-10-11T04:31:01.367Z,99.99
2018-10-11T04:32:01.337Z,99.99
2018-10-11T04:33:01.313Z,99.99
2018-10-11T04:34:01.281Z,99.99
2018-10-11T04:35:01.253Z,99.99
2018-10-11T04:36:01.267Z,99.99
2018-10-11T04:37:01.200Z,99.99
2018-10-11T04:38:01.171Z,99.99
2018-10-11T04:39:01.145Z,99.99
2018-10-11T04:40:01.117Z,99.99
2018-10-11T04:41:01.091Z,99.99
2018-10-11T04:42:01.061Z,99.99
2018-10-11T04:43:01.171Z,99.99
2018-10-11T04:44:01.008Z,99.99
2018-10-11T04:45:00.981Z,99.99
2018-10-11T04:46:00.952Z,99.99
2018-10-11T04:47:00.926Z,99.99
2018-10-11T04:48:00.898Z,99.99
2018-10-11T04:49:00.872Z,99.99
2018-10-11T04:50:00.842Z,99.99
2018-10-11T04:51:00.816Z,99.99
2018-10-11T04:52:00.789Z,99.99
2018-10-11T04:53:00.762Z,99.99
2018-10-11T04:54:00.737Z,99.99
2018-10-11T04:55:00.705Z,99.99
2018-10-11T04:56:00.679Z,99.99
2018-10-11T04:57:00.651Z,99.99
2018-10-11T04:58:00.622Z,99.99
2018-10-11T04:59:00.595Z,99.99
2018-10-11T05:00:00.572Z,99.99
2018-10-11T05:01:00.541Z,99.99
2018-10-11T05:02:00.512Z,99.99
2018-10-11T05:03:00.485Z,99.99
2018-10-11T05:04:00.460Z,99.99
2018-10-11T05:05:00.429Z,99.99
2018-10-11T05:06:00.402Z,99.99
2018-10-11T05:07:00.375Z,99.99
2018-10-11T05:08:00.346Z,99.99
2018-10-11T05:09:00.320Z,99.99
2018-10-11T05:10:00.291Z,99.99
2018-10-11T05:11:00.261Z,99.99
2018-10-11T05:12:00.237Z,99.99
2018-10-11T05:13:00.208Z,99.99
2018-10-11T05:14:00.180Z,99.99
2018-10-11T05:15:00.152Z,99.99
2018-10-11T05:16:00.124Z,99.99
2018-10-11T05:17:00.098Z,99.99
2018-10-11T05:18:00.070Z,99.99
2018-10-11T05:19:00.043Z,99.99
2018-10-11T05:20:00.015Z,99.99
2018-10-11T05:20:59.986Z,99.99
2018-10-11T05:21:59.957Z,99.99
2018-10-11T05:22:59.931Z,99.99
2018-10-11T05:23:59.902Z,99.99
2018-10-11T05:24:59.875Z,99.99
2018-10-11T05:25:59.891Z,99.99
2018-10-11T05:26:59.820Z,99.99
2018-10-11T05:27:59.791Z,99.99
2018-10-11T05:28:59.763Z,99.99
2018-10-11T05:29:59.737Z,99.99
2018-10-11T05:30:59.709Z,99.99
2018-10-11T05:31:59.680Z,99.99
2018-10-11T05:32:59.653Z,99.99
2018-10-11T05:33:59.624Z,99.99
2018-10-11T05:34:59.596Z,99.99
2018-10-11T05:35:59.567Z,99.99
2018-10-11T05:36:59.541Z,99.99
2018-10-11T05:37:59.524Z,99.99
2018-10-11T05:38:59.484Z,99.99
2018-10-11T05:39:59.456Z,99.99
2018-10-11T05:40:59.429Z,99.99
2018-10-11T05:41:59.402Z,99.99
2018-10-11T05:42:59.373Z,99.99
2018-10-11T05:43:59.343Z,99.99
2018-10-11T05:44:59.322Z,99.99
2018-10-11T05:45:59.288Z,99.99
2018-10-11T05:46:59.262Z,99.99
2018-10-11T05:47:59.234Z,99.99
2018-10-11T05:48:59.205Z,99.99
2018-10-11T05:49:59.177Z,99.99
2018-10-11T05:50:59.151Z,99.99
2018-10-11T05:51:59.123Z,99.99
2018-10-11T05:52:59.094Z,99.99
2018-10-11T05:53:59.067Z,99.99
2018-10-11T05:54:59.038Z,99.99
2018-10-11T05:55:59.013Z,99.99
2018-10-11T05:56:58.982Z,99.99
2018-10-11T05:57:58.955Z,99.99
2018-10-11T05:58:58.927Z,99.99
2018-10-11T05:59:58.900Z,99.99
2018-10-11T06:00:58.874Z,99.99
2018-10-11T06:01:58.845Z,99.99
2018-10-11T06:02:58.818Z,99.99
2018-10-11T06:03:58.795Z,99.99
2018-10-11T06:04:58.763Z,99.99
2018-10-11T06:05:58.735Z,99.99
2018-10-11T06:06:58.709Z,99.99
2018-10-11T06:07:58.681Z,99.99
2018-10-11T06:08:58.653Z,99.99
2018-10-11T06:09:58.627Z,99.99
2018-10-11T06:10:58.599Z,99.99
2018-10-11T06:11:58.612Z,99.99
2018-10-11T06:12:58.544Z,99.99
2018-10-11T06:13:58.518Z,99.99
2018-10-11T06:14:58.490Z,99.99
2018-10-11T06:15:58.466Z,99.99
2018-10-11T06:16:58.438Z,99.99
2018-10-11T06:17:58.415Z,99.99
2018-10-11T06:18:58.381Z,99.99
2018-10-11T06:19:58.357Z,99.99
2018-10-11T06:20:58.332Z,99.99
2018-10-11T06:21:58.302Z,99.99
2018-10-11T06:22:58.276Z,99.99
2018-10-11T06:23:58.255Z,99.99
2018-10-11T06:24:58.327Z,99.99
2018-10-11T06:25:58.195Z,99.99
2018-10-11T06:26:58.168Z,99.99
2018-10-11T06:27:58.142Z,99.99
2018-10-11T06:28:58.118Z,99.99
2018-10-11T06:29:58.089Z,99.99
2018-10-11T06:30:58.069Z,99.99
2018-10-11T06:31:58.039Z,99.99
2018-10-11T06:32:58.014Z,99.99
2018-10-11T06:33:57.987Z,99.99
2018-10-11T06:34:57.961Z,99.99
2018-10-11T06:35:57.998Z,99.99
2018-10-11T06:36:57.909Z,99.99
2018-10-11T06:37:57.884Z,99.99
2018-10-11T06:38:57.860Z,99.99
2018-10-11T06:39:57.835Z,99.99
2018-10-11T06:40:57.811Z,99.99
2018-10-11T06:41:57.907Z,99.99
2018-10-11T06:42:57.759Z,99.99
2018-10-11T06:43:57.734Z,99.99
2018-10-11T06:44:57.709Z,99.99
2018-10-11T06:45:57.683Z,99.99
2018-10-11T06:46:57.659Z,99.99
2018-10-11T06:47:57.634Z,99.99
2018-10-11T06:48:57.609Z,99.99
2018-10-11T06:49:57.723Z,99.99
2018-10-11T06:50:57.558Z,99.99
2018-10-11T06:51:57.534Z,99.99
2018-10-11T06:52:57.513Z,99.99
2018-10-11T06:53:57.482Z,99.99
2018-10-11T06:54:57.458Z,99.99
2018-10-11T06:55:57.498Z,99.99
2018-10-11T06:56:57.409Z,99.99
2018-10-11T06:57:57.385Z,99.99
2018-10-11T06:58:57.362Z,99.99
2018-10-11T06:59:57.335Z,99.99
2018-10-11T07:00:57.312Z,99.99
2018-10-11T07:01:57.376Z,99.99
2018-10-11T07:02:57.259Z,99.99
2018-10-11T07:03:57.235Z,99.99
2018-10-11T07:04:57.210Z,99.99
2018-10-11T07:05:57.185Z,99.99
2018-10-11T07:06:57.162Z,99.99
2018-10-11T07:07:57.136Z,99.99
2018-10-11T07:08:57.115Z,99.99
2018-10-11T07:09:57.085Z,99.99
2018-10-11T07:10:57.061Z,99.99
2018-10-11T07:11:57.036Z,99.99
2018-10-11T07:12:57.011Z,99.99
2018-10-11T07:13:57.006Z,99.99
2018-10-11T07:14:57.006Z,99.99
2018-10-11T07:15:56.937Z,99.99
2018-10-11T07:16:56.915Z,99.99
2018-10-11T07:17:56.885Z,99.99
2018-10-11T07:18:56.862Z,99.99
2018-10-11T07:19:56.837Z,99.99
2018-10-11T07:20:56.813Z,99.99
2018-10-11T07:21:56.793Z,99.99
2018-10-11T07:22:56.763Z,99.99
2018-10-11T07:23:56.740Z,99.99
2018-10-11T07:24:56.717Z,99.99
2018-10-11T07:25:56.767Z,99.99
2018-10-11T07:26:56.667Z,99.99
2018-10-11T07:27:56.645Z,99.96
2018-10-11T07:28:56.619Z,99.99
2018-10-11T07:29:56.594Z,98.95
2018-10-11T07:30:56.572Z,97.95
2018-10-11T07:31:56.545Z,96.84
2018-10-11T07:32:56.522Z,92.97
2018-10-11T07:33:56.498Z,90.00
2018-10-11T07:34:56.495Z,88.89
2018-10-11T07:35:56.451Z,88.51
2018-10-11T07:36:56.426Z,88.60
2018-10-11T07:37:56.403Z,88.45
2018-10-11T07:38:56.388Z,87.30
2018-10-11T07:39:56.357Z,87.01
2018-10-11T07:40:56.372Z,86.25
2018-10-11T07:41:56.313Z,86.25
2018-10-11T07:42:56.288Z,84.85
2018-10-11T07:43:56.264Z,82.87
2018-10-11T07:44:56.241Z,81.28
2018-10-11T07:45:56.218Z,79.75
2018-10-11T07:46:56.217Z,79.02
2018-10-11T07:47:56.176Z,76.90
2018-10-11T07:48:56.152Z,77.09
2018-10-11T07:49:56.129Z,76.46
2018-10-11T07:50:56.108Z,75.73
2018-10-11T07:51:56.087Z,73.99
2018-10-11T07:52:56.147Z,72.84
2018-10-11T07:53:56.044Z,73.61
2018-10-11T07:54:56.022Z,73.71
2018-10-11T07:55:56.001Z,73.57
2018-10-11T07:56:55.979Z,73.86
2018-10-11T07:57:55.957Z,73.61
2018-10-11T07:58:55.936Z,72.74
2018-10-11T07:59:55.916Z,72.45
2018-10-11T08:00:55.896Z,72.45
2018-10-11T08:01:55.876Z,72.90
2018-10-11T08:02:55.856Z,72.65
2018-10-11T08:03:55.832Z,71.56
2018-10-11T08:04:55.811Z,69.64
2018-10-11T08:05:55.818Z,68.68
2018-10-11T08:06:55.769Z,69.41
2018-10-11T08:07:55.755Z,69.45
2018-10-11T08:08:55.795Z,68.71
2018-10-11T08:09:55.708Z,67.58
2018-10-11T08:10:55.873Z,67.36
2018-10-11T08:11:55.941Z,67.52
2018-10-11T08:12:55.648Z,68.00
2018-10-11T08:13:55.631Z,68.32
2018-10-11T08:14:55.608Z,67.55
2018-10-11T08:15:55.630Z,67.46
2018-10-11T08:16:55.695Z,67.16
2018-10-11T08:17:55.917Z,66.24
2018-10-11T08:18:55.690Z,65.66
2018-10-11T08:19:55.579Z,65.34
2018-10-11T08:20:55.494Z,63.89
2018-10-11T08:21:55.469Z,64.59
2018-10-11T08:22:55.448Z,65.66
2018-10-11T08:23:55.428Z,66.59
2018-10-11T08:24:55.471Z,67.46
2018-10-11T08:25:55.837Z,66.78
2018-10-11T08:26:55.431Z,65.72
2018-10-11T08:27:55.350Z,65.30
2018-10-11T08:28:55.329Z,64.82
2018-10-11T08:29:55.310Z,63.82
2018-10-11T08:30:55.292Z,62.47
2018-10-11T08:31:55.271Z,63.09
2018-10-11T08:32:55.299Z,63.67
2018-10-11T08:33:55.232Z,63.31
2018-10-11T08:34:55.214Z,63.09
2018-10-11T08:35:55.195Z,62.99
2018-10-11T08:36:55.177Z,63.09
2018-10-11T08:37:55.348Z,63.28
2018-10-11T08:38:55.138Z,62.92
2018-10-11T08:39:55.119Z,62.95
2018-10-11T08:40:55.099Z,61.60
2018-10-11T08:41:55.078Z,61.22
2018-10-11T08:42:55.061Z,60.47
2018-10-11T08:43:55.103Z,60.35
2018-10-11T08:44:55.023Z,60.73
2018-10-11T08:45:55.007Z,61.19
2018-10-11T08:46:54.985Z,60.93
2018-10-11T08:47:54.966Z,60.35
2018-10-11T08:48:54.961Z,59.80
2018-10-11T08:49:54.928Z,58.93
2018-10-11T08:50:54.958Z,59.38
2018-10-11T08:51:54.891Z,60.25
2018-10-11T08:52:54.871Z,60.35
2018-10-11T08:53:54.853Z,59.70
2018-10-11T08:54:54.836Z,58.37
2018-10-11T08:55:54.889Z,57.99
2018-10-11T08:56:54.797Z,57.79
2018-10-11T08:57:54.777Z,57.89
2018-10-11T08:58:54.759Z,57.89
2018-10-11T08:59:54.742Z,57.82
2018-10-11T09:00:54.723Z,57.15
2018-10-11T09:01:54.704Z,56.40
2018-10-11T09:02:54.689Z,56.09
2018-10-11T09:03:54.813Z,56.35
2018-10-11T09:04:54.650Z,57.12
2018-10-11T09:05:54.631Z,57.31
2018-10-11T09:06:54.611Z,56.41
2018-10-11T09:07:54.593Z,57.21
2018-10-11T09:08:54.576Z,57.48
2018-10-11T09:09:54.558Z,57.96
2018-10-11T09:10:54.617Z,58.51
2018-10-11T09:11:54.534Z,57.67
2018-10-11T09:12:54.502Z,58.03
2018-10-11T09:13:54.484Z,57.67
2018-10-11T09:14:54.464Z,57.77
2018-10-11T09:15:54.447Z,57.70
2018-10-11T09:16:54.426Z,57.24
2018-10-11T09:17:54.408Z,54.75
2018-10-11T09:18:54.390Z,53.72
2018-10-11T09:19:54.373Z,54.27
2018-10-11T09:20:54.355Z,54.93
2018-10-11T09:21:54.336Z,55.57
2018-10-11T09:22:54.318Z,55.67
2018-10-11T09:23:54.301Z,55.11
2018-10-11T09:24:54.282Z,55.21
2018-10-11T09:25:54.262Z,55.21
2018-10-11T09:26:54.245Z,54.71
2018-10-11T09:27:54.226Z,55.67
2018-10-11T09:28:54.209Z,55.19
2018-10-11T09:29:54.189Z,54.93
2018-10-11T09:30:54.173Z,54.90
2018-10-11T09:31:54.155Z,54.73
2018-10-11T09:32:54.136Z,53.57
2018-10-11T09:33:54.118Z,53.59
2018-10-11T09:34:54.100Z,53.47
2018-10-11T09:35:54.082Z,53.59
2018-10-11T09:36:54.063Z,54.66
2018-10-11T09:37:54.045Z,53.79
2018-10-11T09:38:54.027Z,52.75
2018-10-11T09:39:54.013Z,52.46
2018-10-11T09:40:53.991Z,52.44
2018-10-11T09:41:53.973Z,52.56
2018-10-11T09:42:53.983Z,52.53
2018-10-11T09:43:53.936Z,52.82
2018-10-11T09:44:53.919Z,52.61
2018-10-11T09:45:53.903Z,53.79
2018-10-11T09:46:53.883Z,52.82
2018-10-11T09:47:53.865Z,52.05
2018-10-11T09:48:53.934Z,52.63
2018-10-11T09:49:53.829Z,52.12
2018-10-11T09:50:53.811Z,52.63
2018-10-11T09:51:53.797Z,52.92
2018-10-11T09:52:53.775Z,52.41
2018-10-11T09:53:53.756Z,52.05
2018-10-11T09:54:53.763Z,51.66
2018-10-11T09:55:53.721Z,51.40
2018-10-11T09:56:53.703Z,52.08
2018-10-11T09:57:53.683Z,51.50
2018-10-11T09:58:53.667Z,51.86
2018-10-11T09:59:53.649Z,52.10
2018-10-11T10:00:53.631Z,51.68
2018-10-11T10:01:53.623Z,51.78
2018-10-11T10:02:53.595Z,51.88
2018-10-11T10:03:53.577Z,51.78
2018-10-11T10:04:53.558Z,51.59
2018-10-11T10:05:53.541Z,50.82
2018-10-11T10:06:53.522Z,51.42
2018-10-11T10:07:53.504Z,50.19
2018-10-11T10:08:53.487Z,49.99
2018-10-11T10:09:53.510Z,50.16
2018-10-11T10:10:53.452Z,50.65
2018-10-11T10:11:53.436Z,50.38
2018-10-11T10:12:53.416Z,50.48
2018-10-11T10:13:53.396Z,49.92
2018-10-11T10:14:53.380Z,48.85
2018-10-11T10:15:53.362Z,49.27
2018-10-11T10:16:53.344Z,50.60
2018-10-11T10:17:53.324Z,51.30
2018-10-11T10:18:53.308Z,50.65
2018-10-11T10:19:53.293Z,49.39
2018-10-11T10:20:53.272Z,49.29
2018-10-11T10:21:53.255Z,49.02
2018-10-11T10:22:53.239Z,49.02
2018-10-11T10:23:53.220Z,49.00
2018-10-11T10:24:53.209Z,49.29
2018-10-11T10:25:53.183Z,48.71
2018-10-11T10:26:53.175Z,48.44
2018-10-11T10:27:53.146Z,48.64
2018-10-11T10:28:53.130Z,48.81
2018-10-11T10:29:53.111Z,49.19
2018-10-11T10:30:53.094Z,48.93
2018-10-11T10:31:53.076Z,48.76
2018-10-11T10:32:53.057Z,47.93
2018-10-11T10:33:53.049Z,47.13
2018-10-11T10:34:53.024Z,46.11
2018-10-11T10:35:53.004Z,44.37
2018-10-11T10:36:52.986Z,45.31
2018-10-11T10:37:52.967Z,45.45
2018-10-11T10:38:52.951Z,44.51
2018-10-11T10:39:53.004Z,44.51
2018-10-11T10:40:52.919Z,44.21
2018-10-11T10:41:52.901Z,44.00
2018-10-11T10:42:52.880Z,44.48
2018-10-11T10:43:52.868Z,44.75
2018-10-11T10:44:52.849Z,45.12
2018-10-11T10:45:52.830Z,45.29
2018-10-11T10:46:52.813Z,45.48
2018-10-11T10:47:52.796Z,45.20
2018-10-11T10:48:52.844Z,46.48
2018-10-11T10:49:52.761Z,45.31
2018-10-11T10:50:52.743Z,45.43
2018-10-11T10:51:52.726Z,44.37
2018-10-11T10:52:52.711Z,44.17
2018-10-11T10:53:52.692Z,44.27
2018-10-11T10:54:52.674Z,44.64
2018-10-11T10:55:52.657Z,44.85
2018-10-11T10:56:52.639Z,44.75
2018-10-11T10:57:52.622Z,44.44
2018-10-11T10:58:52.610Z,44.88
2018-10-11T10:59:52.593Z,46.31
2018-10-11T11:00:52.572Z,46.12
2018-10-11T11:01:52.557Z,46.92
2018-10-11T11:02:52.535Z,45.58
2018-10-11T11:03:52.517Z,46.16
2018-10-11T11:04:52.501Z,46.07
2018-10-11T11:05:52.483Z,45.39
2018-10-11T11:06:52.466Z,44.90
2018-10-11T11:07:52.447Z,44.73
2018-10-11T11:08:52.431Z,45.21
2018-10-11T11:09:52.413Z,45.39
2018-10-11T11:10:52.393Z,44.90
2018-10-11T11:11:52.381Z,44.71
2018-10-11T11:12:52.358Z,45.10
2018-10-11T11:13:52.341Z,44.81
2018-10-11T11:14:52.324Z,45.31
2018-10-11T11:15:52.306Z,44.73
2018-10-11T11:16:52.287Z,43.98
2018-10-11T11:17:52.268Z,43.90
2018-10-11T11:18:52.275Z,42.93
2018-10-11T11:19:52.233Z,42.44
2018-10-11T11:20:52.217Z,42.58
2018-10-11T11:21:52.199Z,42.00
2018-10-11T11:22:52.180Z,40.62
2018-10-11T11:23:52.163Z,42.43
2018-10-11T11:24:52.150Z,42.91
2018-10-11T11:25:52.127Z,42.74
2018-10-11T11:26:52.109Z,42.44
2018-10-11T11:27:52.093Z,42.44
2018-10-11T11:28:52.075Z,41.84
2018-10-11T11:29:52.056Z,42.08
2018-10-11T11:30:52.041Z,41.39
2018-10-11T11:31:52.022Z,40.41
2018-10-11T11:32:52.054Z,41.06
2018-10-11T11:33:51.987Z,41.55
2018-10-11T11:34:51.968Z,41.55
2018-10-11T11:35:51.950Z,41.39
2018-10-11T11:36:51.933Z,40.89
2018-10-11T11:37:51.914Z,40.50
2018-10-11T11:38:51.898Z,41.06
2018-10-11T11:39:51.932Z,40.52
2018-10-11T11:40:51.862Z,40.29
2018-10-11T11:41:51.845Z,39.62
2018-10-11T11:42:51.828Z,40.31
2018-10-11T11:43:51.809Z,40.31
2018-10-11T11:44:51.792Z,40.64
2018-10-11T11:45:51.787Z,40.44
2018-10-11T11:46:51.756Z,39.78
2018-10-11T11:47:51.738Z,39.03
2018-10-11T11:48:51.720Z,38.36
2018-10-11T11:49:51.703Z,37.39
2018-10-11T11:50:51.684Z,37.99
2018-10-11T11:51:51.666Z,37.12
2018-10-11T11:52:51.652Z,36.84
2018-10-11T11:53:51.633Z,36.43
2018-10-11T11:54:51.616Z,37.02
2018-10-11T11:55:51.598Z,37.39
2018-10-11T11:56:51.580Z,36.80
2018-10-11T11:57:51.596Z,36.92
2018-10-11T11:58:51.545Z,37.16
2018-10-11T11:59:51.528Z,38.01
2018-10-11T12:00:51.515Z,38.70
2018-10-11T12:01:51.494Z,38.13
2018-10-11T12:02:51.560Z,38.03
2018-10-11T12:03:51.462Z,38.07
2018-10-11T12:04:51.442Z,38.87
2018-10-11T12:05:51.426Z,38.79
2018-10-11T12:06:51.408Z,38.21
2018-10-11T12:07:51.391Z,38.60
2018-10-11T12:08:51.374Z,38.21
2018-10-11T12:09:51.357Z,38.21
2018-10-11T12:10:51.401Z,38.03
2018-10-11T12:11:51.324Z,37.45
2018-10-11T12:12:51.304Z,37.45
2018-10-11T12:13:51.285Z,36.98
2018-10-11T12:14:51.270Z,36.30
2018-10-11T12:15:51.254Z,36.26
2018-10-11T12:16:51.236Z,37.43
2018-10-11T12:17:51.218Z,36.85
2018-10-11T12:18:51.206Z,37.24
2018-10-11T12:19:51.183Z,37.62
2018-10-11T12:20:51.167Z,37.99
2018-10-11T12:21:51.152Z,37.93
2018-10-11T12:22:51.132Z,36.46
2018-10-11T12:23:51.112Z,37.74
2018-10-11T12:24:51.173Z,37.43
2018-10-11T12:25:51.079Z,37.82
2018-10-11T12:26:51.062Z,37.32
2018-10-11T12:27:51.044Z,38.11
2018-10-11T12:28:51.034Z,38.01
2018-10-11T12:29:51.011Z,37.34
2018-10-11T12:30:50.990Z,37.45
2018-10-11T12:31:50.974Z,37.46
2018-10-11T12:32:50.957Z,36.57
2018-10-11T12:33:50.942Z,36.67
2018-10-11T12:34:50.921Z,36.26
2018-10-11T12:35:50.903Z,36.47
2018-10-11T12:36:50.885Z,35.88
2018-10-11T12:37:50.940Z,36.75
2018-10-11T12:38:51.004Z,36.75
2018-10-11T12:39:50.831Z,37.43
2018-10-11T12:40:50.816Z,36.67
2018-10-11T12:41:50.798Z,36.28
2018-10-11T12:42:50.779Z,36.71
2018-10-11T12:43:50.762Z,34.95
2018-10-11T12:44:50.745Z,34.94
2018-10-11T12:45:50.727Z,35.33
2018-10-11T12:46:50.714Z,35.99
2018-10-11T12:47:50.693Z,35.83
2018-10-11T12:48:50.675Z,35.03
2018-10-11T12:49:50.714Z,35.89
2018-10-11T12:50:50.640Z,36.47
2018-10-11T12:51:50.727Z,36.30